Time;durP1;ratioP1;P1;durP2;ratioP2;P2;SDS_P1;SDS_P2;PMS_P1;PMS_P2;Temp;Humidity;BMP_temperature;BMP_pressure;BME280_temperature;BME280_humidity;BME280_pressure;Samples;Min_cycle;Max_cycle;Signal;HPM_P1;HPM_P2
2022/06/05 00:02:29;;;;;;;17.73;13.95;;;11.20;99.90;;;;;;5033709;28;20045;-60
2022/06/05 00:05:07;;;;;;;22.20;15.43;;;11.00;99.90;;;;;;5034525;28;20077;-60
2022/06/05 00:07:45;;;;;;;22.20;13.32;;;11.10;99.90;;;;;;5035000;28;20403;-59
2022/06/05 00:10:27;;;;;;;16.88;13.82;;;11.10;99.90;;;;;;5033062;28;20515;-60
2022/06/05 00:12:59;;;;;;;18.52;13.80;;;11.00;99.90;;;;;;5042221;28;20052;-60
2022/06/05 00:15:24;;;;;;;22.70;15.07;;;11.10;99.90;;;;;;5031266;28;20045;-60
2022/06/05 00:17:50;;;;;;;21.50;15.07;;;11.00;99.90;;;;;;5020351;28;20136;-61
2022/06/05 00:20:16;;;;;;;21.80;14.90;;;11.20;99.90;;;;;;5015527;28;20041;-60
2022/06/05 00:22:42;;;;;;;21.00;13.98;;;11.20;99.90;;;;;;5011967;28;20127;-60
2022/06/05 00:25:10;;;;;;;22.55;13.65;;;11.10;99.90;;;;;;5037135;28;20424;-61
2022/06/05 00:27:50;;;;;;;19.73;13.40;;;11.30;99.90;;;;;;5040385;28;20044;-60
2022/06/05 00:30:21;;;;;;;19.92;12.80;;;11.30;99.90;;;;;;5043203;28;20106;-59
2022/06/05 00:32:59;;;;;;;22.15;14.18;;;11.20;99.90;;;;;;5018669;28;20052;-59
2022/06/05 00:35:30;;;;;;;19.05;13.35;;;11.40;99.90;;;;;;5039411;28;20052;-59
2022/06/05 00:38:07;;;;;;;18.02;13.13;;;11.20;99.90;;;;;;5025219;28;20042;-59
2022/06/05 00:41:00;;;;;;;19.80;14.60;;;11.20;99.90;;;;;;5029686;28;20064;-59
2022/06/05 00:43:27;;;;;;;20.10;14.13;;;11.20;99.90;;;;;;5037626;28;20037;-59
2022/06/05 00:45:57;;;;;;;22.15;14.50;;;11.20;99.90;;;;;;5029083;28;20047;-59
2022/06/05 00:48:24;;;;;;;15.82;13.52;;;11.40;99.90;;;;;;5033628;28;20033;-59
2022/06/05 00:50:50;;;;;;;22.48;14.32;;;11.30;99.90;;;;;;5030948;28;20048;-59
2022/06/05 00:53:16;;;;;;;21.98;14.60;;;11.20;99.90;;;;;;5016327;28;20037;-59
2022/06/05 00:55:47;;;;;;;17.52;14.35;;;11.20;99.90;;;;;;5011570;28;20083;-59
2022/06/05 00:58:13;;;;;;;21.98;14.80;;;11.20;99.90;;;;;;5038147;28;20045;-59
2022/06/05 01:00:42;;;;;;;20.83;16.45;;;11.20;99.90;;;;;;5036471;28;20037;-59
2022/06/05 01:03:11;;;;;;;25.58;15.82;;;11.20;99.90;;;;;;5027880;28;20033;-59
2022/06/05 01:05:38;;;;;;;25.88;14.95;;;11.30;99.90;;;;;;5039359;28;20045;-59
2022/06/05 01:08:04;;;;;;;22.63;15.65;;;11.40;99.90;;;;;;5037910;28;20491;-58
2022/06/05 01:10:43;;;;;;;19.05;14.93;;;11.30;99.90;;;;;;5042420;28;20094;-59
2022/06/05 01:13:18;;;;;;;21.92;14.68;;;11.30;99.90;;;;;;5030723;28;20062;-58
2022/06/05 01:16:14;;;;;;;23.50;14.60;;;11.40;99.90;;;;;;5032094;28;20414;-58
2022/06/05 01:18:58;;;;;;;22.00;15.30;;;11.30;99.90;;;;;;5032093;28;20453;-59
2022/06/05 01:21:44;;;;;;;;;;;11.30;99.90;;;;;;5043961;28;20075;-58
2022/06/05 01:24:48;;;;;;;21.48;14.57;;;11.30;99.90;;;;;;5050104;28;19921;-58
2022/06/05 01:27:20;;;;;;;20.30;15.40;;;11.40;99.90;;;;;;5015070;28;20502;-58
2022/06/05 01:29:53;;;;;;;21.08;14.73;;;11.30;99.90;;;;;;5039576;28;20044;-58
2022/06/05 01:32:33;;;;;;;18.75;16.08;;;11.20;99.90;;;;;;5042225;28;20383;-58
2022/06/05 01:35:18;;;;;;;24.08;15.65;;;11.40;99.90;;;;;;5034215;28;20132;-58
2022/06/05 01:37:51;;;;;;;22.40;15.15;;;11.30;99.90;;;;;;5042543;28;20049;-58
2022/06/05 01:40:25;;;;;;;;;;;11.40;99.90;;;;;;5036363;28;20025;-60
2022/06/05 01:43:01;;;;;;;21.92;14.98;;;11.20;99.90;;;;;;5045271;28;20039;-60
2022/06/05 01:45:46;;;;;;;27.23;15.55;;;11.20;99.90;;;;;;5043991;28;20125;-58
2022/06/05 01:48:18;;;;;;;22.05;14.48;;;11.30;99.90;;;;;;5041656;28;20188;-60
2022/06/05 01:50:48;;;;;;;17.42;14.63;;;11.40;99.90;;;;;;5037289;28;20394;-59
2022/06/05 01:53:19;;;;;;;22.17;14.55;;;11.40;99.90;;;;;;5040144;28;20029;-59
2022/06/05 01:56:01;;;;;;;21.60;15.57;;;11.40;99.90;;;;;;5047747;28;20037;-59
2022/06/05 01:58:36;;;;;;;19.73;15.30;;;11.50;99.90;;;;;;5043004;28;20041;-59
2022/06/05 02:01:08;;;;;;;21.73;15.52;;;11.50;99.90;;;;;;5037769;28;20141;-60
2022/06/05 02:03:36;;;;;;;24.65;17.85;;;11.50;99.90;;;;;;5053797;28;20124;-59
2022/06/05 02:06:32;;;;;;;28.48;17.25;;;11.50;99.90;;;;;;5039841;28;20491;-59
2022/06/05 02:09:08;;;;;;;26.27;18.75;;;11.60;99.90;;;;;;5037492;28;20175;-59
2022/06/05 02:11:34;;;;;;;25.92;18.48;;;11.40;99.90;;;;;;5038622;28;20073;-59
2022/06/05 02:14:03;;;;;;;26.88;18.73;;;11.50;99.90;;;;;;5041081;28;20049;-59
2022/06/05 02:16:31;;;;;;;26.38;17.27;;;11.60;99.90;;;;;;5037826;28;20048;-59
2022/06/05 02:18:59;;;;;;;26.90;18.45;;;11.60;99.90;;;;;;5047859;28;20043;-59
2022/06/05 02:21:26;;;;;;;29.23;18.40;;;11.60;99.90;;;;;;5041308;28;20041;-59
2022/06/05 02:23:52;;;;;;;26.15;17.13;;;11.50;99.90;;;;;;5037138;28;20123;-59
2022/06/05 02:26:17;;;;;;;27.17;19.05;;;11.50;99.90;;;;;;5036986;28;20195;-59
2022/06/05 02:28:43;;;;;;;26.35;18.13;;;11.50;99.90;;;;;;5029231;28;20041;-59
2022/06/05 02:31:37;;;;;;;25.98;17.83;;;11.60;99.90;;;;;;5037351;28;20123;-58
2022/06/05 02:34:19;;;;;;;26.63;19.15;;;11.60;99.90;;;;;;5042628;28;20389;-59
2022/06/05 02:36:44;;;;;;;31.77;18.73;;;11.70;99.90;;;;;;5038728;28;20330;-59
2022/06/05 02:39:22;;;;;;;26.15;19.13;;;11.70;99.90;;;;;;5036363;28;20049;-59
2022/06/05 02:41:57;;;;;;;28.45;19.20;;;11.50;99.90;;;;;;5046567;28;20489;-59
2022/06/05 02:44:44;;;;;;;25.30;18.63;;;11.50;99.90;;;;;;5041425;28;20523;-59
2022/06/05 02:47:28;;;;;;;26.05;18.75;;;11.60;99.90;;;;;;5039749;28;20033;-58
2022/06/05 02:50:14;;;;;;;27.55;18.63;;;11.50;99.90;;;;;;5037038;28;20056;-59
2022/06/05 02:52:41;;;;;;;24.48;18.10;;;11.60;99.90;;;;;;5039398;28;20046;-59
2022/06/05 02:55:13;;;;;;;27.23;19.10;;;11.50;99.90;;;;;;5040334;28;20080;-59
2022/06/05 02:57:40;;;;;;;25.73;19.05;;;11.70;99.90;;;;;;5030840;28;20095;-59
2022/06/05 03:00:11;;;;;;;30.65;19.65;;;11.50;99.90;;;;;;5035499;28;20051;-59
2022/06/05 03:05:21;;;;;;;29.88;19.73;;;11.60;99.90;;;;;;5035444;28;20036;-59
2022/06/05 03:07:47;;;;;;;28.75;19.63;;;11.60;99.90;;;;;;5039005;28;20044;-58
2022/06/05 03:10:13;;;;;;;29.30;20.15;;;11.50;99.90;;;;;;5038280;28;20595;-58
2022/06/05 03:12:38;;;;;;;28.92;19.90;;;11.50;99.90;;;;;;5038431;28;20045;-59
2022/06/05 03:15:06;;;;;;;31.75;20.58;;;11.60;99.90;;;;;;5038645;28;20051;-59
2022/06/05 03:17:32;;;;;;;31.83;19.42;;;11.60;99.90;;;;;;5040919;28;20113;-59
2022/06/05 03:19:58;;;;;;;34.75;21.02;;;11.80;99.90;;;;;;5031277;28;20049;-59
2022/06/05 03:22:24;;;;;;;28.42;20.13;;;11.60;99.90;;;;;;5044838;28;20114;-58
2022/06/05 03:24:51;;;;;;;33.50;20.08;;;11.70;99.90;;;;;;5023074;28;20052;-59
2022/06/05 03:27:18;;;;;;;27.52;20.05;;;11.80;99.90;;;;;;5036781;28;20040;-59
2022/06/05 03:29:44;;;;;;;26.10;19.85;;;11.70;99.90;;;;;;5045118;28;20041;-59
2022/06/05 03:32:10;;;;;;;26.55;18.13;;;11.90;99.90;;;;;;5015817;28;20116;-59
2022/06/05 03:34:36;;;;;;;29.52;18.50;;;11.70;99.90;;;;;;5030085;28;20053;-60
2022/06/05 03:37:03;;;;;;;27.90;19.30;;;11.90;99.90;;;;;;5037044;28;20041;-59
2022/06/05 03:39:30;;;;;;;27.92;19.67;;;11.80;99.90;;;;;;5025355;28;20044;-59
2022/06/05 03:41:56;;;;;;;29.73;18.73;;;11.90;99.90;;;;;;5039069;28;20114;-58
2022/06/05 03:44:22;;;;;;;27.55;20.85;;;12.10;99.90;;;;;;5029636;28;20454;-59
2022/06/05 03:46:48;;;;;;;28.42;19.40;;;12.00;99.90;;;;;;5032631;28;20041;-59
2022/06/05 03:49:13;;;;;;;32.78;19.92;;;12.10;99.90;;;;;;5017570;28;20423;-59
2022/06/05 03:51:39;;;;;;;25.60;18.40;;;12.10;99.90;;;;;;5035773;28;20045;-59
2022/06/05 03:54:05;;;;;;;28.20;19.08;;;12.30;99.90;;;;;;5022540;28;20049;-60
2022/06/05 03:56:31;;;;;;;25.88;17.30;;;12.10;99.90;;;;;;5034997;28;20102;-59
2022/06/05 03:58:58;;;;;;;24.45;18.95;;;12.20;99.90;;;;;;5034480;28;20048;-61
2022/06/05 04:01:26;;;;;;;25.23;18.23;;;12.10;99.90;;;;;;5035246;28;20151;-61
2022/06/05 04:03:52;;;;;;;23.77;18.95;;;12.40;99.90;;;;;;5032685;28;20045;-61
2022/06/05 04:06:21;;;;;;;27.23;20.08;;;12.30;99.90;;;;;;5040603;28;20040;-61
2022/06/05 04:08:48;;;;;;;27.02;18.23;;;12.30;99.90;;;;;;5036995;28;20041;-61
2022/06/05 04:11:18;;;;;;;25.65;19.13;;;12.50;99.90;;;;;;5040701;28;20392;-61
2022/06/05 04:13:44;;;;;;;26.17;19.38;;;12.30;99.90;;;;;;5036705;28;20499;-61
2022/06/05 04:16:19;;;;;;;25.23;18.17;;;12.50;99.90;;;;;;5036326;28;20060;-61
2022/06/05 04:18:45;;;;;;;21.52;18.23;;;12.50;99.90;;;;;;5036999;28;20420;-61
2022/06/05 04:21:15;;;;;;;24.67;17.80;;;12.40;99.90;;;;;;5035598;28;20099;-61
2022/06/05 04:23:41;;;;;;;28.95;19.10;;;12.50;99.90;;;;;;5041032;28;20088;-61
2022/06/05 04:26:14;;;;;;;29.13;18.80;;;12.50;99.90;;;;;;5037247;28;20064;-62
2022/06/05 04:28:40;;;;;;;24.77;18.30;;;12.70;99.90;;;;;;5036884;28;20450;-61
2022/06/05 04:31:16;;;;;;;25.42;17.98;;;12.60;99.90;;;;;;5036493;28;20116;-61
2022/06/05 04:33:42;;;;;;;22.52;17.65;;;12.60;99.90;;;;;;5039981;28;20083;-61
2022/06/05 04:36:08;;;;;;;18.02;16.10;;;12.70;99.90;;;;;;5035537;28;20452;-61
2022/06/05 04:38:33;;;;;;;23.50;17.90;;;12.70;99.90;;;;;;5043222;28;20041;-59
2022/06/05 04:40:59;;;;;;;21.75;17.67;;;12.80;99.90;;;;;;5027277;28;20045;-60
2022/06/05 04:43:25;;;;;;;20.17;17.88;;;12.70;99.90;;;;;;5028799;28;20380;-60
2022/06/05 04:45:51;;;;;;;20.08;17.63;;;13.00;99.90;;;;;;5029007;28;20045;-60
2022/06/05 04:48:16;;;;;;;21.92;16.73;;;12.80;99.90;;;;;;5038702;28;20395;-60
2022/06/05 04:50:42;;;;;;;20.80;16.33;;;13.10;99.90;;;;;;5038182;28;20041;-60
2022/06/05 04:53:08;;;;;;;21.73;17.67;;;13.00;99.90;;;;;;5009024;28;20036;-60
2022/06/05 04:55:36;;;;;;;20.55;17.13;;;13.30;99.90;;;;;;5019115;28;20041;-59
2022/06/05 04:58:02;;;;;;;19.00;16.27;;;13.20;99.90;;;;;;5034005;28;20118;-59
2022/06/05 05:00:28;;;;;;;21.42;17.52;;;13.30;99.90;;;;;;5042203;28;20041;-59
2022/06/05 05:02:53;;;;;;;24.42;17.00;;;13.60;99.90;;;;;;5044238;28;20049;-60
2022/06/05 05:05:19;;;;;;;18.95;16.25;;;13.50;99.90;;;;;;5041123;28;20034;-60
2022/06/05 05:07:45;;;;;;;20.75;16.10;;;13.70;99.90;;;;;;5023835;28;20093;-59
2022/06/05 05:10:11;;;;;;;18.48;15.45;;;13.50;99.90;;;;;;5040293;28;20099;-59
2022/06/05 05:12:37;;;;;;;17.33;15.52;;;13.60;99.90;;;;;;5030763;28;20141;-60
2022/06/05 05:15:04;;;;;;;19.52;16.10;;;13.70;99.90;;;;;;5040942;28;20049;-60
2022/06/05 05:17:29;;;;;;;17.10;14.07;;;13.80;99.90;;;;;;5032056;28;20553;-60
2022/06/05 05:19:56;;;;;;;18.88;15.18;;;13.80;99.90;;;;;;5044554;28;20497;-60
2022/06/05 05:22:22;;;;;;;20.83;15.63;;;14.00;99.90;;;;;;5042225;28;20061;-59
2022/06/05 05:24:48;;;;;;;15.82;14.10;;;14.10;99.90;;;;;;5042967;28;20429;-60
2022/06/05 05:27:14;;;;;;;18.85;14.65;;;14.10;99.90;;;;;;5041954;28;20037;-60
2022/06/05 05:29:41;;;;;;;20.08;14.95;;;14.10;99.90;;;;;;5044783;28;20122;-60
2022/06/05 05:32:08;;;;;;;16.73;14.80;;;14.00;99.90;;;;;;5039861;28;20046;-60
2022/06/05 05:34:34;;;;;;;18.35;14.85;;;14.20;99.90;;;;;;5019306;28;20069;-60
2022/06/05 05:37:00;;;;;;;18.95;14.20;;;14.00;99.90;;;;;;5032605;28;20518;-61
2022/06/05 05:42:11;;;;;;;16.30;14.15;;;14.40;99.90;;;;;;5034943;28;20492;-60
2022/06/05 05:44:40;;;;;;;18.60;13.80;;;14.20;99.90;;;;;;5040857;28;20056;-60
2022/06/05 05:47:10;;;;;;;16.63;13.38;;;14.40;99.90;;;;;;5048594;28;20033;-61
2022/06/05 05:49:36;;;;;;;15.82;13.32;;;14.70;99.90;;;;;;5037886;28;20044;-60
2022/06/05 05:52:03;;;;;;;13.50;12.20;;;14.90;99.90;;;;;;5045863;28;20356;-61
2022/06/05 05:54:28;;;;;;;13.32;12.05;;;15.40;99.90;;;;;;5026200;28;20557;-61
2022/06/05 05:56:54;;;;;;;13.80;12.35;;;15.70;99.90;;;;;;5043844;28;20041;-60
2022/06/05 05:59:20;;;;;;;12.57;11.13;;;15.90;99.90;;;;;;5035686;28;20140;-60
2022/06/05 06:01:47;;;;;;;13.65;11.38;;;16.20;99.90;;;;;;5042457;28;20506;-61
2022/06/05 06:04:13;;;;;;;12.43;10.70;;;16.50;99.90;;;;;;5043964;28;20069;-61
2022/06/05 06:06:43;;;;;;;11.63;10.40;;;16.70;99.90;;;;;;5046364;28;20106;-61
2022/06/05 06:09:09;;;;;;;12.55;11.25;;;17.10;99.90;;;;;;5040419;28;20037;-61
2022/06/05 06:11:35;;;;;;;12.55;10.60;;;17.30;99.90;;;;;;5035554;28;20033;-61
2022/06/05 06:14:01;;;;;;;11.63;10.10;;;17.30;99.90;;;;;;5030578;28;20087;-61
2022/06/05 06:16:27;;;;;;;11.18;10.07;;;17.50;99.90;;;;;;5039012;28;20049;-61
2022/06/05 06:18:54;;;;;;;12.02;9.40;;;17.50;99.90;;;;;;5038167;28;20041;-61
2022/06/05 06:21:20;;;;;;;10.60;9.52;;;17.60;99.90;;;;;;5040083;28;20041;-61
2022/06/05 06:23:46;;;;;;;10.60;9.60;;;17.80;99.90;;;;;;5038232;28;20665;-61
2022/06/05 06:26:12;;;;;;;10.90;9.68;;;18.00;99.90;;;;;;5038912;28;20133;-61
2022/06/05 06:28:38;;;;;;;9.95;9.00;;;18.20;99.90;;;;;;5053586;28;20043;-62
2022/06/05 06:31:10;;;;;;;10.98;9.90;;;18.10;99.90;;;;;;5045157;28;20051;-63
2022/06/05 06:33:37;;;;;;;10.33;9.43;;;18.10;99.90;;;;;;5030870;28;20144;-61
2022/06/05 06:36:04;;;;;;;10.60;9.27;;;18.10;99.90;;;;;;5034598;28;20527;-62
2022/06/05 06:38:30;;;;;;;10.75;8.88;;;18.10;99.90;;;;;;5027668;28;20479;-62
2022/06/05 06:41:09;;;;;;;10.57;9.43;;;18.20;99.90;;;;;;5038145;28;20040;-61
2022/06/05 06:43:35;;;;;;;9.80;8.82;;;18.00;99.90;;;;;;5036933;28;20639;-61
2022/06/05 06:46:02;;;;;;;10.35;9.13;;;18.00;99.90;;;;;;5043998;28;20042;-61
2022/06/05 06:48:29;;;;;;;10.15;9.15;;;18.00;99.90;;;;;;5038122;28;20120;-61
2022/06/05 06:50:56;;;;;;;10.48;8.73;;;18.00;99.90;;;;;;5032699;28;20049;-61
2022/06/05 06:53:22;;;;;;;10.88;9.07;;;17.80;99.90;;;;;;5023541;28;20045;-61
2022/06/05 06:55:49;;;;;;;9.77;8.82;;;17.80;99.90;;;;;;5003918;28;20045;-61
2022/06/05 06:58:15;;;;;;;10.77;8.57;;;17.90;99.90;;;;;;5017703;28;20468;-61
2022/06/05 07:00:41;;;;;;;9.07;8.23;;;17.90;99.90;;;;;;5038193;28;20519;-61
2022/06/05 07:03:07;;;;;;;9.40;7.60;;;17.90;99.90;;;;;;5033038;28;20057;-61
2022/06/05 07:05:33;;;;;;;7.65;6.95;;;18.00;99.90;;;;;;5018399;28;20510;-61
2022/06/05 07:07:59;;;;;;;9.00;7.50;;;17.90;99.90;;;;;;5020207;28;20535;-61
2022/06/05 07:10:25;;;;;;;8.10;6.93;;;17.80;99.90;;;;;;5021961;28;20036;-61
2022/06/05 07:12:51;;;;;;;9.50;7.30;;;17.80;99.90;;;;;;5028744;28;20067;-62
2022/06/05 07:15:17;;;;;;;6.57;5.93;;;18.10;99.90;;;;;;5039322;28;20338;-62
2022/06/05 07:17:43;;;;;;;6.95;6.25;;;18.20;99.90;;;;;;5037032;28;20037;-61
2022/06/05 07:20:09;;;;;;;8.15;7.35;;;18.20;99.90;;;;;;5026154;28;20099;-62
2022/06/05 07:22:34;;;;;;;8.30;7.57;;;18.20;99.90;;;;;;5037038;28;20472;-61
2022/06/05 07:25:01;;;;;;;7.53;6.85;;;18.20;99.90;;;;;;5011842;28;20048;-61
2022/06/05 07:27:27;;;;;;;8.48;6.93;;;18.40;99.90;;;;;;5028753;28;20037;-62
2022/06/05 07:29:54;;;;;;;7.85;6.15;;;18.50;99.90;;;;;;5022378;28;20069;-60
2022/06/05 07:32:20;;;;;;;8.52;7.00;;;18.60;99.90;;;;;;5038340;28;20120;-61
2022/06/05 07:34:47;;;;;;;8.82;7.40;;;18.70;99.90;;;;;;5023751;28;20045;-61
2022/06/05 07:37:16;;;;;;;7.60;6.90;;;18.90;99.90;;;;;;5041823;28;20045;-61
2022/06/05 07:39:47;;;;;;;6.95;6.20;;;19.00;99.90;;;;;;5020273;28;20044;-62
2022/06/05 07:42:13;;;;;;;8.50;6.18;;;18.90;99.90;;;;;;5027277;28;20128;-62
2022/06/05 07:44:39;;;;;;;6.50;5.80;;;19.20;99.90;;;;;;5036789;28;20140;-60
2022/06/05 07:47:06;;;;;;;6.40;5.80;;;19.40;99.90;;;;;;5021504;28;20041;-60
2022/06/05 07:49:34;;;;;;;8.45;6.75;;;19.50;99.90;;;;;;5035199;28;20123;-60
2022/06/05 07:54:45;;;;;;;5.80;5.05;;;19.60;99.90;;;;;;5025269;28;20049;-60
2022/06/05 07:57:13;;;;;;;6.85;6.15;;;19.70;99.90;;;;;;5037813;28;20566;-60
2022/06/05 07:59:44;;;;;;;6.53;5.85;;;19.80;99.90;;;;;;5026162;28;20506;-60
2022/06/05 08:02:23;;;;;;;6.25;5.65;;;19.90;99.90;;;;;;5036859;28;20041;-60
2022/06/05 08:04:50;;;;;;;7.38;5.90;;;20.20;99.90;;;;;;5042402;28;20041;-60
2022/06/05 08:07:19;;;;;;;5.93;5.30;;;20.30;99.90;;;;;;5031705;28;20037;-60
2022/06/05 08:09:45;;;;;;;6.85;5.20;;;20.30;99.90;;;;;;5044709;28;20048;-60
2022/06/05 08:12:13;;;;;;;5.68;5.18;;;20.40;99.90;;;;;;5033981;28;20077;-60
2022/06/05 08:14:41;;;;;;;5.35;4.85;;;20.80;99.90;;;;;;5032825;28;20079;-60
2022/06/05 08:17:12;;;;;;;5.80;5.30;;;21.10;99.90;;;;;;5038301;28;20042;-60
2022/06/05 08:19:39;;;;;;;6.95;5.47;;;21.10;99.90;;;;;;5042604;28;20111;-61
2022/06/05 08:22:05;;;;;;;8.25;5.30;;;21.10;99.90;;;;;;5017100;28;20546;-61
2022/06/05 08:24:30;;;;;;;6.97;5.45;;;21.10;99.90;;;;;;5046455;28;20414;-60
2022/06/05 08:26:56;;;;;;;5.85;5.22;;;21.40;99.90;;;;;;5044076;28;20037;-59
2022/06/05 08:29:22;;;;;;;5.60;5.10;;;21.50;99.90;;;;;;5022863;28;20071;-59
2022/06/05 08:31:48;;;;;;;5.45;4.95;;;21.30;99.90;;;;;;5048164;28;20473;-59
2022/06/05 08:34:14;;;;;;;6.38;5.28;;;21.20;99.90;;;;;;5046814;28;20083;-60
2022/06/05 08:36:40;;;;;;;6.55;5.32;;;21.30;99.90;;;;;;5041000;28;20069;-60
2022/06/05 08:42:03;;;;;;;5.25;4.82;;;21.50;99.90;;;;;;5035663;28;20084;-60
2022/06/05 08:44:41;;;;;;;6.60;5.13;;;21.70;99.90;;;;;;5034489;28;20045;-60
2022/06/05 08:47:21;;;;;;;4.88;4.45;;;21.70;99.90;;;;;;5035052;28;20083;-60
2022/06/05 08:50:22;;;;;;;4.55;4.13;;;21.90;99.90;;;;;;5036126;28;20034;-60
2022/06/05 08:52:56;;;;;;;4.72;4.30;;;22.00;99.90;;;;;;5038570;28;20154;-60
2022/06/05 08:55:32;;;;;;;6.20;5.13;;;22.20;99.90;;;;;;5037041;28;20072;-60
2022/06/05 08:58:21;;;;;;;5.07;4.65;;;22.20;99.90;;;;;;5034547;28;20132;-60
2022/06/05 09:00:55;;;;;;;5.82;4.63;;;22.20;99.90;;;;;;5037013;28;20049;-60
2022/06/05 09:03:39;;;;;;;4.75;4.30;;;22.00;99.90;;;;;;5028075;28;20052;-60
2022/06/05 09:06:13;;;;;;;4.90;4.50;;;22.30;99.90;;;;;;5042908;28;20041;-60
2022/06/05 09:08:42;;;;;;;4.50;4.10;;;22.30;99.90;;;;;;5048381;28;20039;-59
2022/06/05 09:11:18;;;;;;;4.35;3.95;;;22.60;99.90;;;;;;5048265;28;20510;-60
2022/06/05 09:14:02;;;;;;;8.93;4.40;;;22.60;99.90;;;;;;5047801;28;20084;-60
2022/06/05 09:16:37;;;;;;;4.68;4.28;;;22.60;99.90;;;;;;5047160;28;20080;-60
2022/06/05 09:19:04;;;;;;;5.53;4.40;;;22.60;99.90;;;;;;5047432;28;20398;-60
2022/06/05 09:21:39;;;;;;;4.82;3.50;;;22.50;99.90;;;;;;5048301;28;20045;-60
2022/06/05 09:24:49;;;;;;;4.97;3.30;;;22.40;99.90;;;;;;5047257;28;20475;-61
2022/06/05 09:27:27;;;;;;;4.05;3.42;;;22.50;99.90;;;;;;4986623;28;20096;-60
2022/06/05 09:30:07;;;;;;;4.30;3.90;;;22.50;99.90;;;;;;4987126;28;20048;-61
2022/06/05 09:33:10;;;;;;;3.80;3.50;;;22.60;99.90;;;;;;5019475;28;20158;-59
2022/06/05 09:35:41;;;;;;;4.18;3.10;;;22.50;99.90;;;;;;5047188;28;20052;-60
2022/06/05 09:38:26;;;;;;;4.85;3.58;;;22.50;99.90;;;;;;5047099;28;20132;-61
2022/06/05 09:41:00;;;;;;;6.63;3.72;;;22.60;99.90;;;;;;5030640;28;20304;-60
2022/06/05 09:43:54;;;;;;;4.03;3.63;;;22.60;99.90;;;;;;5048796;28;20056;-60
2022/06/05 09:46:45;;;;;;;3.90;3.05;;;22.90;99.90;;;;;;5050561;28;20140;-61
2022/06/05 09:49:25;;;;;;;3.90;3.10;;;23.10;99.90;;;;;;5050610;28;20045;-61
2022/06/05 09:51:52;;;;;;;4.53;3.30;;;23.20;99.90;;;;;;5051490;28;20049;-61
2022/06/05 09:54:31;;;;;;;3.63;3.33;;;23.40;99.90;;;;;;5051756;28;20442;-59
2022/06/05 10:00:01;;;;;;;5.00;3.40;;;23.90;99.90;;;;;;5051640;28;20190;-61
2022/06/05 10:02:28;;;;;;;3.25;2.90;;;23.90;99.90;;;;;;5050177;28;20143;-61
2022/06/05 10:04:54;;;;;;;4.68;3.10;;;23.60;99.90;;;;;;5051367;28;20053;-58
2022/06/05 10:07:24;;;;;;;4.50;2.90;;;23.80;99.90;;;;;;5049667;28;20048;-59
2022/06/05 10:09:50;;;;;;;5.85;3.40;;;24.00;99.90;;;;;;5033402;28;20041;-59
2022/06/05 10:12:27;;;;;;;5.18;3.17;;;24.00;99.90;;;;;;5033369;28;20146;-59
2022/06/05 10:15:15;;;;;;;5.68;3.10;;;23.90;99.90;;;;;;5033231;28;20130;-59
2022/06/05 10:17:45;;;;;;;3.85;3.25;;;23.90;99.90;;;;;;5051762;28;20037;-59
2022/06/05 10:20:13;;;;;;;4.28;3.50;;;24.10;99.90;;;;;;5050154;28;20041;-59
2022/06/05 10:22:39;;;;;;;3.40;3.10;;;24.30;99.90;;;;;;5049621;28;20083;-59
2022/06/05 10:25:23;;;;;;;3.97;3.42;;;24.40;99.90;;;;;;5049872;28;20099;-59
2022/06/05 10:27:51;;;;;;;4.35;3.10;;;24.10;99.90;;;;;;5033299;28;20057;-60
2022/06/05 10:30:19;;;;;;;5.53;3.22;;;24.60;99.90;;;;;;5051086;28;20587;-59
2022/06/05 10:32:58;;;;;;;8.10;3.55;;;24.80;99.90;;;;;;5033309;28;20044;-59
2022/06/05 10:35:30;;;;;;;4.22;3.38;;;24.70;99.90;;;;;;5049976;28;20142;-60
2022/06/05 10:38:32;;;;;;;4.70;3.42;;;24.50;99.90;;;;;;5049509;28;20055;-59
2022/06/05 10:41:30;;;;;;;4.97;3.20;;;24.80;99.90;;;;;;5019992;28;20415;-60
2022/06/05 10:44:24;;;;;;;5.35;3.22;;;24.60;99.90;;;;;;5048564;28;20041;-60
2022/06/05 10:47:07;;;;;;;3.97;3.28;;;24.90;99.90;;;;;;5049731;28;20041;-60
2022/06/05 10:49:43;;;;;;;5.38;3.40;;;25.10;99.90;;;;;;5049351;28;20392;-60
2022/06/05 10:52:26;;;;;;;4.97;3.00;;;24.90;99.90;;;;;;5050863;28;20045;-60
2022/06/05 10:54:57;;;;;;;4.18;3.15;;;25.20;99.90;;;;;;5049355;28;20152;-59
2022/06/05 10:57:38;;;;;;;4.60;3.35;;;25.10;99.90;;;;;;5048942;28;20076;-60
2022/06/05 11:00:14;;;;;;;4.38;3.05;;;25.40;99.90;;;;;;5049369;28;20060;-59
2022/06/05 11:02:46;;;;;;;3.45;3.15;;;25.70;99.90;;;;;;5049053;28;20045;-60
2022/06/05 11:05:27;;;;;;;3.38;2.92;;;25.60;98.10;;;;;;5049504;28;20045;-60
2022/06/05 11:08:23;;;;;;;3.75;2.70;;;25.30;98.90;;;;;;5049083;28;20067;-60
2022/06/05 11:14:11;;;;;;;4.22;3.22;;;25.10;99.90;;;;;;5048021;28;20064;-60
2022/06/05 11:16:54;;;;;;;4.07;2.63;;;25.30;99.90;;;;;;5050271;28;20041;-60
2022/06/05 11:19:41;;;;;;;5.45;2.88;;;25.40;98.60;;;;;;5048639;28;20041;-60
2022/06/05 11:22:15;;;;;;;2.75;2.55;;;25.30;99.90;;;;;;5048724;28;20479;-60
2022/06/05 11:24:50;;;;;;;4.10;3.17;;;25.30;98.40;;;;;;5050305;28;20110;-60
2022/06/05 11:27:38;;;;;;;3.33;2.75;;;25.10;99.50;;;;;;5049857;28;20075;-60
2022/06/05 11:30:11;;;;;;;3.50;2.50;;;24.90;99.90;;;;;;5048416;28;20116;-60
2022/06/05 11:32:47;;;;;;;4.28;2.38;;;24.90;97.30;;;;;;5048716;28;20072;-60
2022/06/05 11:35:45;;;;;;;4.95;2.55;;;24.60;99.70;;;;;;5048791;28;20045;-60
2022/06/05 11:38:20;;;;;;;4.43;2.70;;;24.80;99.60;;;;;;5048491;28;20049;-60
2022/06/05 11:40:56;;;;;;;3.83;2.80;;;24.70;99.90;;;;;;5049791;28;20053;-60
2022/06/05 11:43:22;;;;;;;2.63;1.88;;;24.60;99.90;;;;;;5049074;28;20118;-60
2022/06/05 11:46:10;;;;;;;2.83;2.25;;;24.60;99.90;;;;;;5048496;28;20415;-60
2022/06/05 11:48:44;;;;;;;3.75;2.42;;;24.60;99.90;;;;;;5049636;28;20040;-60
2022/06/05 11:51:19;;;;;;;6.10;2.22;;;24.50;99.90;;;;;;5048448;28;20725;-61
2022/06/05 11:53:54;;;;;;;3.03;2.15;;;24.50;99.90;;;;;;5049671;28;20108;-60
2022/06/05 11:56:48;;;;;;;3.55;2.05;;;24.80;98.20;;;;;;5049444;28;20067;-60
2022/06/05 11:59:32;;;;;;;3.28;2.35;;;24.80;99.10;;;;;;5049414;28;20044;-60
2022/06/05 12:02:08;;;;;;;3.70;2.50;;;24.90;99.50;;;;;;5048122;28;20049;-60
2022/06/05 12:04:49;;;;;;;2.20;2.00;;;24.90;99.90;;;;;;5048013;28;20124;-60
2022/06/05 12:07:16;;;;;;;3.95;2.10;;;24.70;99.90;;;;;;5031190;28;20044;-60
2022/06/05 12:09:53;;;;;;;3.38;2.33;;;24.50;99.90;;;;;;5049524;28;20041;-60
2022/06/05 12:12:38;;;;;;;3.13;2.08;;;24.70;99.90;;;;;;5047883;28;20098;-61
2022/06/05 12:15:41;;;;;;;3.65;2.05;;;24.60;99.90;;;;;;5049192;28;20044;-61
2022/06/05 12:18:09;;;;;;;;;;;24.40;99.90;;;;;;5049775;28;20402;-60
2022/06/05 12:20:48;;;;;;;3.50;2.15;;;24.40;99.90;;;;;;5047641;28;19927;-62
2022/06/05 12:23:34;;;;;;;2.17;1.98;;;24.60;99.90;;;;;;5049355;28;20069;-61
2022/06/05 12:26:21;;;;;;;3.58;2.10;;;24.70;99.90;;;;;;5049113;28;20044;-60
2022/06/05 12:29:00;;;;;;;4.35;2.00;;;24.70;99.60;;;;;;5049596;28;20384;-61
2022/06/05 12:31:36;;;;;;;4.05;2.00;;;24.50;99.90;;;;;;5049935;28;20116;-61
2022/06/05 12:34:25;;;;;;;3.53;2.03;;;24.70;99.90;;;;;;5047998;28;20557;-61
2022/06/05 12:37:11;;;;;;;5.22;1.80;;;24.20;99.90;;;;;;5047932;28;20445;-61
2022/06/05 12:39:43;;;;;;;2.50;2.25;;;24.00;99.90;;;;;;5048200;28;20040;-61
2022/06/05 12:42:22;;;;;;;3.25;2.03;;;24.10;99.90;;;;;;5030710;28;20045;-61
2022/06/05 12:45:25;;;;;;;3.42;2.08;;;24.00;99.90;;;;;;5031116;28;20114;-61
2022/06/05 12:48:09;;;;;;;3.45;2.22;;;23.80;99.90;;;;;;5047546;28;20052;-62
2022/06/05 12:51:00;;;;;;;5.57;2.72;;;23.70;99.90;;;;;;5030790;28;20427;-62
2022/06/05 12:54:00;;;;;;;4.20;2.40;;;23.70;99.90;;;;;;5047704;28;20518;-62
2022/06/05 12:56:35;;;;;;;4.22;2.25;;;23.90;99.90;;;;;;5030590;28;20806;-62
2022/06/05 12:59:40;;;;;;;4.15;2.75;;;24.00;99.90;;;;;;5047657;28;20052;-62
2022/06/05 13:02:26;;;;;;;4.75;2.38;;;23.80;99.90;;;;;;5047284;28;20048;-62
2022/06/05 13:05:04;;;;;;;4.75;2.60;;;23.60;99.90;;;;;;5047485;28;20060;-62
2022/06/05 13:08:02;;;;;;;3.47;2.20;;;23.50;99.90;;;;;;5047432;28;20045;-62
2022/06/05 13:10:38;;;;;;;2.95;2.58;;;23.30;99.90;;;;;;5031297;28;20079;-62
2022/06/05 13:13:38;;;;;;;3.20;2.08;;;23.30;99.90;;;;;;5047110;28;20052;-62
2022/06/05 13:16:11;;;;;;;2.58;2.38;;;23.10;99.90;;;;;;5047435;28;20041;-61
2022/06/05 13:19:01;;;;;;;3.63;2.03;;;23.10;99.90;;;;;;5048922;28;20549;-61
2022/06/05 13:21:39;;;;;;;3.95;2.42;;;23.20;99.90;;;;;;5050705;28;20123;-62
2022/06/05 13:24:22;;;;;;;4.07;2.38;;;23.20;99.90;;;;;;5050986;28;20045;-61
2022/06/05 13:27:03;;;;;;;2.70;2.00;;;23.30;99.90;;;;;;5052297;28;20041;-61